Airfield :
LOGIN :

Register | Disclaimer

   EN    FR    IT 

 










Legend :    VFR   Marginal VFR   IFR   Intensive IFR   Very Intensive IFR
Visi :
Ceiling :
>= 8 km
>= 3000ft
5 to 8 km
1000 to 3000 ft
1500m to 5 km
500 to 1000 ft
800 to 1500m
200 to 500 ft
< 800m
< 200 ft
Symbols :   Thunderstorms  Fog  Heavy snow  Heavy precipitations  Wind > 20 kt
SIGMETs :     Misc.  Thunderstorms  Icing  Turbulence  Mountain Waves  Volcanic Ashes






- Airport Elevation : 309 ft
- IATA code : FNI


LFTW - Nîmes Garons

CURRENT METAR :
  • 052030Z AUTO 36009KT 320V030 CAVOK 09/00 Q1028 BECMG 01015G25KT

EXPIRED METARs :
  • 052000Z AUTO 36015KT 320V040 CAVOK 10/00 Q1028 BECMG 01015G25KT
  • 051930Z AUTO 35021KT CAVOK 10/00 Q1028 BECMG 01015G25KT
  • 051900Z AUTO 34018KT CAVOK 10/M00 Q1028 BECMG 01015G25KT
  • 051830Z AUTO 35022G35KT CAVOK 10/M00 Q1028 BECMG 01015G25KT
  • 051800Z AUTO 35015KT CAVOK 10/M00 Q1028 BECMG 35025G35KT

TAF TAF LFTW
Valid from the 05 at 15:00 until the 06 at 15:00 UTC


051400Z 0515/0615 35025G35KT CAVOK
BECMG 0520/0522 01015G25KT
BECMG 0602/0604 4000 RA BKN010 BKN060
BECMG 0605/0607 02012KT CAVOK



MET'MAP, your aeronautical weather chart ! - Copyright ORBIFLY December 2007 - Disclaimer

ORBIFLY MET'MAP TEAM :

Programming & Development : Alexandra Zaïnal
Original concept : Baudouin d'Aumeries
Technical & hardware support : Manuel Goepfert
Assistance : Marc-Olivier Méhu




SOURCES & CREDITS :

   NOAA